Rominger, North Carolina
Current Conditions -  °F | °C
As of 7:35 AM on Sunday 23 Nov 2014 (Local Time) from KTNB Reporting Station
Overcast Overcast  
Wind Chill: 43°   Ceiling: 800
Heat Index: 43°   Visibility: 10mi
Dew Point: 41°   Wind: 0mph
Humidity: 95%   Direction: NA
Pressure: 30.2"   Gusts: NA
Location:  36.1797°N, 81.8424°W
Report Text: KTNB 231235Z AUTO 00000KT 10SM OVC008 06/05 A3020 RMK AO2 T00600052
Loading
Personal Weather Stations






























Interactive Weather Map New forecast layout! Learn more

10-Day Weather Forecast

Advertisements
Track Severe Weather on mobile